sensor_id;sensor_type;location;lat;lon;timestamp;P1;durP1;ratioP1;P2;durP2;ratioP2
36351;SDS011;22382;44.768;17.206;2022-12-07T00:01:26;55.40;;;27.30;;
36351;SDS011;22382;44.768;17.206;2022-12-07T00:03:55;62.55;;;29.88;;
36351;SDS011;22382;44.768;17.206;2022-12-07T00:06:36;68.55;;;28.85;;
36351;SDS011;22382;44.768;17.206;2022-12-07T00:09:06;63.55;;;28.08;;
36351;SDS011;22382;44.768;17.206;2022-12-07T00:11:35;57.20;;;27.67;;
36351;SDS011;22382;44.768;17.206;2022-12-07T00:14:04;70.13;;;30.08;;
36351;SDS011;22382;44.768;17.206;2022-12-07T00:16:33;62.22;;;27.40;;
36351;SDS011;22382;44.768;17.206;2022-12-07T00:19:02;56.67;;;26.98;;
36351;SDS011;22382;44.768;17.206;2022-12-07T00:21:34;53.05;;;24.88;;
36351;SDS011;22382;44.768;17.206;2022-12-07T00:24:02;55.47;;;27.55;;
36351;SDS011;22382;44.768;17.206;2022-12-07T00:26:34;55.78;;;26.13;;
36351;SDS011;22382;44.768;17.206;2022-12-07T00:29:15;53.95;;;27.25;;
36351;SDS011;22382;44.768;17.206;2022-12-07T00:31:44;54.22;;;26.25;;
36351;SDS011;22382;44.768;17.206;2022-12-07T00:34:12;57.92;;;27.50;;
36351;SDS011;22382;44.768;17.206;2022-12-07T00:36:41;55.20;;;25.95;;
36351;SDS011;22382;44.768;17.206;2022-12-07T00:39:08;57.05;;;26.88;;
36351;SDS011;22382;44.768;17.206;2022-12-07T00:41:35;53.53;;;25.98;;
36351;SDS011;22382;44.768;17.206;2022-12-07T00:44:02;53.25;;;24.85;;
36351;SDS011;22382;44.768;17.206;2022-12-07T00:46:29;62.50;;;26.52;;
36351;SDS011;22382;44.768;17.206;2022-12-07T00:48:57;55.70;;;26.40;;
36351;SDS011;22382;44.768;17.206;2022-12-07T00:51:24;59.05;;;26.70;;
36351;SDS011;22382;44.768;17.206;2022-12-07T00:53:52;52.50;;;26.13;;
36351;SDS011;22382;44.768;17.206;2022-12-07T00:56:23;51.33;;;25.17;;
36351;SDS011;22382;44.768;17.206;2022-12-07T00:59:00;46.65;;;24.60;;
36351;SDS011;22382;44.768;17.206;2022-12-07T01:01:30;53.85;;;27.17;;
36351;SDS011;22382;44.768;17.206;2022-12-07T01:03:59;53.20;;;27.35;;
36351;SDS011;22382;44.768;17.206;2022-12-07T01:06:29;53.88;;;28.17;;
36351;SDS011;22382;44.768;17.206;2022-12-07T01:08:56;60.15;;;29.08;;
36351;SDS011;22382;44.768;17.206;2022-12-07T01:11:25;50.28;;;27.15;;
36351;SDS011;22382;44.768;17.206;2022-12-07T01:13:54;53.17;;;28.77;;
36351;SDS011;22382;44.768;17.206;2022-12-07T01:16:23;56.80;;;27.67;;
36351;SDS011;22382;44.768;17.206;2022-12-07T01:18:52;56.83;;;28.05;;
36351;SDS011;22382;44.768;17.206;2022-12-07T01:21:22;57.72;;;29.48;;
36351;SDS011;22382;44.768;17.206;2022-12-07T01:23:51;57.08;;;29.67;;
36351;SDS011;22382;44.768;17.206;2022-12-07T01:26:22;63.53;;;29.92;;
36351;SDS011;22382;44.768;17.206;2022-12-07T01:28:50;61.25;;;29.67;;
36351;SDS011;22382;44.768;17.206;2022-12-07T01:31:18;61.88;;;30.60;;
36351;SDS011;22382;44.768;17.206;2022-12-07T01:33:48;59.33;;;29.17;;
36351;SDS011;22382;44.768;17.206;2022-12-07T01:36:18;55.55;;;29.45;;
36351;SDS011;22382;44.768;17.206;2022-12-07T01:38:47;55.38;;;28.98;;
36351;SDS011;22382;44.768;17.206;2022-12-07T01:41:19;52.27;;;27.50;;
36351;SDS011;22382;44.768;17.206;2022-12-07T01:46:36;51.65;;;26.83;;
36351;SDS011;22382;44.768;17.206;2022-12-07T01:49:04;55.85;;;28.58;;
36351;SDS011;22382;44.768;17.206;2022-12-07T01:51:34;51.38;;;27.70;;
36351;SDS011;22382;44.768;17.206;2022-12-07T01:54:06;53.55;;;27.83;;
36351;SDS011;22382;44.768;17.206;2022-12-07T01:56:36;51.03;;;27.33;;
36351;SDS011;22382;44.768;17.206;2022-12-07T01:59:05;50.10;;;26.33;;
36351;SDS011;22382;44.768;17.206;2022-12-07T02:01:33;44.53;;;25.23;;
36351;SDS011;22382;44.768;17.206;2022-12-07T02:04:00;48.55;;;25.63;;
36351;SDS011;22382;44.768;17.206;2022-12-07T02:06:27;43.88;;;23.15;;
36351;SDS011;22382;44.768;17.206;2022-12-07T02:08:55;43.50;;;25.20;;
36351;SDS011;22382;44.768;17.206;2022-12-07T02:11:22;42.47;;;24.60;;
36351;SDS011;22382;44.768;17.206;2022-12-07T02:13:49;45.15;;;25.88;;
36351;SDS011;22382;44.768;17.206;2022-12-07T02:16:33;48.30;;;24.60;;
36351;SDS011;22382;44.768;17.206;2022-12-07T02:24:57;39.28;;;22.88;;
36351;SDS011;22382;44.768;17.206;2022-12-07T02:31:20;41.00;;;22.67;;
36351;SDS011;22382;44.768;17.206;2022-12-07T02:33:51;40.38;;;23.52;;
36351;SDS011;22382;44.768;17.206;2022-12-07T02:36:27;42.92;;;23.63;;
36351;SDS011;22382;44.768;17.206;2022-12-07T02:44:14;41.05;;;23.35;;
36351;SDS011;22382;44.768;17.206;2022-12-07T02:46:58;42.15;;;22.80;;
36351;SDS011;22382;44.768;17.206;2022-12-07T02:49:31;42.75;;;24.92;;
36351;SDS011;22382;44.768;17.206;2022-12-07T02:52:00;49.10;;;26.23;;
36351;SDS011;22382;44.768;17.206;2022-12-07T02:54:26;47.30;;;26.50;;
36351;SDS011;22382;44.768;17.206;2022-12-07T02:57:26;51.65;;;27.48;;
36351;SDS011;22382;44.768;17.206;2022-12-07T03:11:09;41.13;;;22.55;;
36351;SDS011;22382;44.768;17.206;2022-12-07T03:13:51;40.40;;;22.20;;
36351;SDS011;22382;44.768;17.206;2022-12-07T03:16:50;36.13;;;21.38;;
36351;SDS011;22382;44.768;17.206;2022-12-07T03:19:29;38.47;;;21.33;;
36351;SDS011;22382;44.768;17.206;2022-12-07T03:22:01;38.03;;;21.65;;
36351;SDS011;22382;44.768;17.206;2022-12-07T03:27:41;37.15;;;22.10;;
36351;SDS011;22382;44.768;17.206;2022-12-07T03:30:13;37.75;;;21.77;;
36351;SDS011;22382;44.768;17.206;2022-12-07T03:32:53;39.95;;;23.20;;
36351;SDS011;22382;44.768;17.206;2022-12-07T03:35:34;39.25;;;22.63;;
36351;SDS011;22382;44.768;17.206;2022-12-07T03:38:22;36.47;;;21.73;;
36351;SDS011;22382;44.768;17.206;2022-12-07T03:43:33;39.35;;;22.10;;
36351;SDS011;22382;44.768;17.206;2022-12-07T03:51:33;38.28;;;23.33;;
36351;SDS011;22382;44.768;17.206;2022-12-07T03:57:11;36.58;;;19.58;;
36351;SDS011;22382;44.768;17.206;2022-12-07T03:59:39;35.08;;;21.60;;
36351;SDS011;22382;44.768;17.206;2022-12-07T04:02:08;32.63;;;19.67;;
36351;SDS011;22382;44.768;17.206;2022-12-07T04:04:39;33.17;;;20.08;;
36351;SDS011;22382;44.768;17.206;2022-12-07T04:07:06;30.75;;;18.85;;
36351;SDS011;22382;44.768;17.206;2022-12-07T04:09:33;32.38;;;20.00;;
36351;SDS011;22382;44.768;17.206;2022-12-07T04:12:00;31.80;;;18.13;;
36351;SDS011;22382;44.768;17.206;2022-12-07T04:14:27;32.92;;;20.13;;
36351;SDS011;22382;44.768;17.206;2022-12-07T04:16:55;38.35;;;21.35;;
36351;SDS011;22382;44.768;17.206;2022-12-07T04:19:33;36.65;;;21.55;;
36351;SDS011;22382;44.768;17.206;2022-12-07T04:22:01;40.85;;;24.30;;
36351;SDS011;22382;44.768;17.206;2022-12-07T04:24:29;37.80;;;22.27;;
36351;SDS011;22382;44.768;17.206;2022-12-07T04:26:56;36.75;;;22.50;;
36351;SDS011;22382;44.768;17.206;2022-12-07T04:29:23;37.03;;;20.83;;
36351;SDS011;22382;44.768;17.206;2022-12-07T04:31:51;36.50;;;22.15;;
36351;SDS011;22382;44.768;17.206;2022-12-07T04:34:18;34.78;;;20.90;;
36351;SDS011;22382;44.768;17.206;2022-12-07T04:36:46;35.17;;;20.23;;
36351;SDS011;22382;44.768;17.206;2022-12-07T04:39:18;30.02;;;19.30;;
36351;SDS011;22382;44.768;17.206;2022-12-07T04:41:55;33.67;;;19.70;;
36351;SDS011;22382;44.768;17.206;2022-12-07T04:44:24;35.40;;;20.70;;
36351;SDS011;22382;44.768;17.206;2022-12-07T04:46:52;30.73;;;17.77;;
36351;SDS011;22382;44.768;17.206;2022-12-07T04:49:19;29.00;;;17.85;;
36351;SDS011;22382;44.768;17.206;2022-12-07T04:51:46;33.72;;;19.15;;
36351;SDS011;22382;44.768;17.206;2022-12-07T04:54:14;31.27;;;19.08;;
36351;SDS011;22382;44.768;17.206;2022-12-07T04:56:42;33.40;;;18.80;;
36351;SDS011;22382;44.768;17.206;2022-12-07T04:59:10;32.55;;;19.85;;
36351;SDS011;22382;44.768;17.206;2022-12-07T05:01:38;28.02;;;17.80;;
36351;SDS011;22382;44.768;17.206;2022-12-07T05:04:05;30.02;;;18.65;;
36351;SDS011;22382;44.768;17.206;2022-12-07T05:06:32;29.92;;;19.00;;
36351;SDS011;22382;44.768;17.206;2022-12-07T05:08:59;34.63;;;20.27;;
36351;SDS011;22382;44.768;17.206;2022-12-07T05:11:26;34.97;;;21.75;;
36351;SDS011;22382;44.768;17.206;2022-12-07T05:14:10;33.22;;;21.50;;
36351;SDS011;22382;44.768;17.206;2022-12-07T05:16:38;34.00;;;20.13;;
36351;SDS011;22382;44.768;17.206;2022-12-07T05:19:06;38.35;;;21.40;;
36351;SDS011;22382;44.768;17.206;2022-12-07T05:21:34;36.95;;;21.60;;
36351;SDS011;22382;44.768;17.206;2022-12-07T05:24:02;36.53;;;21.08;;
36351;SDS011;22382;44.768;17.206;2022-12-07T05:26:29;38.10;;;20.90;;
36351;SDS011;22382;44.768;17.206;2022-12-07T05:28:57;37.78;;;21.92;;
36351;SDS011;22382;44.768;17.206;2022-12-07T05:31:25;37.08;;;22.83;;
36351;SDS011;22382;44.768;17.206;2022-12-07T05:33:53;39.47;;;22.67;;
36351;SDS011;22382;44.768;17.206;2022-12-07T05:36:20;39.58;;;22.98;;
36351;SDS011;22382;44.768;17.206;2022-12-07T05:38:47;37.97;;;23.90;;
36351;SDS011;22382;44.768;17.206;2022-12-07T05:41:15;39.10;;;23.02;;
36351;SDS011;22382;44.768;17.206;2022-12-07T05:44:02;41.40;;;23.75;;
36351;SDS011;22382;44.768;17.206;2022-12-07T05:46:31;45.72;;;24.90;;
36351;SDS011;22382;44.768;17.206;2022-12-07T05:48:58;39.38;;;23.42;;
36351;SDS011;22382;44.768;17.206;2022-12-07T05:51:25;41.80;;;24.42;;
36351;SDS011;22382;44.768;17.206;2022-12-07T05:53:52;39.72;;;24.10;;
36351;SDS011;22382;44.768;17.206;2022-12-07T05:56:19;39.70;;;24.77;;
36351;SDS011;22382;44.768;17.206;2022-12-07T05:58:46;37.63;;;22.88;;
36351;SDS011;22382;44.768;17.206;2022-12-07T06:01:32;42.90;;;24.17;;
36351;SDS011;22382;44.768;17.206;2022-12-07T06:03:59;41.33;;;25.13;;
36351;SDS011;22382;44.768;17.206;2022-12-07T06:06:26;44.13;;;27.25;;
36351;SDS011;22382;44.768;17.206;2022-12-07T06:08:53;40.83;;;24.45;;
36351;SDS011;22382;44.768;17.206;2022-12-07T06:11:20;41.70;;;24.60;;
36351;SDS011;22382;44.768;17.206;2022-12-07T06:14:05;36.90;;;22.10;;
36351;SDS011;22382;44.768;17.206;2022-12-07T06:16:32;35.60;;;21.98;;
36351;SDS011;22382;44.768;17.206;2022-12-07T06:18:59;42.55;;;25.38;;
36351;SDS011;22382;44.768;17.206;2022-12-07T06:21:26;43.38;;;24.95;;
36351;SDS011;22382;44.768;17.206;2022-12-07T06:23:53;39.88;;;23.15;;
36351;SDS011;22382;44.768;17.206;2022-12-07T06:26:21;41.47;;;23.67;;
36351;SDS011;22382;44.768;17.206;2022-12-07T06:28:47;44.88;;;25.17;;
36351;SDS011;22382;44.768;17.206;2022-12-07T06:31:14;43.80;;;26.27;;
36351;SDS011;22382;44.768;17.206;2022-12-07T06:33:42;45.25;;;26.17;;
36351;SDS011;22382;44.768;17.206;2022-12-07T06:36:09;46.42;;;26.15;;
36351;SDS011;22382;44.768;17.206;2022-12-07T06:38:36;42.75;;;25.20;;
36351;SDS011;22382;44.768;17.206;2022-12-07T06:41:04;49.92;;;27.90;;
36351;SDS011;22382;44.768;17.206;2022-12-07T06:43:31;44.97;;;26.83;;
36351;SDS011;22382;44.768;17.206;2022-12-07T06:45:58;46.97;;;25.52;;
36351;SDS011;22382;44.768;17.206;2022-12-07T06:48:25;50.53;;;27.20;;
36351;SDS011;22382;44.768;17.206;2022-12-07T06:50:52;49.47;;;27.08;;
36351;SDS011;22382;44.768;17.206;2022-12-07T06:53:21;49.58;;;27.40;;
36351;SDS011;22382;44.768;17.206;2022-12-07T06:55:48;48.55;;;26.52;;
36351;SDS011;22382;44.768;17.206;2022-12-07T06:58:16;49.13;;;26.70;;
36351;SDS011;22382;44.768;17.206;2022-12-07T07:00:43;50.65;;;29.08;;
36351;SDS011;22382;44.768;17.206;2022-12-07T07:03:11;59.92;;;33.15;;
36351;SDS011;22382;44.768;17.206;2022-12-07T07:05:38;64.40;;;32.90;;
36351;SDS011;22382;44.768;17.206;2022-12-07T07:08:05;61.85;;;34.05;;
36351;SDS011;22382;44.768;17.206;2022-12-07T07:10:49;53.38;;;29.10;;
36351;SDS011;22382;44.768;17.206;2022-12-07T07:13:16;52.47;;;27.58;;
36351;SDS011;22382;44.768;17.206;2022-12-07T07:15:43;48.45;;;27.83;;
36351;SDS011;22382;44.768;17.206;2022-12-07T07:18:10;43.78;;;25.58;;
36351;SDS011;22382;44.768;17.206;2022-12-07T07:20:37;44.42;;;25.40;;
36351;SDS011;22382;44.768;17.206;2022-12-07T07:23:04;45.63;;;25.05;;
36351;SDS011;22382;44.768;17.206;2022-12-07T07:25:32;47.42;;;25.60;;
36351;SDS011;22382;44.768;17.206;2022-12-07T07:28:00;43.78;;;25.85;;
36351;SDS011;22382;44.768;17.206;2022-12-07T07:30:27;45.33;;;25.67;;
36351;SDS011;22382;44.768;17.206;2022-12-07T07:32:58;40.08;;;23.45;;
36351;SDS011;22382;44.768;17.206;2022-12-07T07:35:26;42.47;;;24.58;;
36351;SDS011;22382;44.768;17.206;2022-12-07T07:37:54;45.83;;;23.60;;
36351;SDS011;22382;44.768;17.206;2022-12-07T07:40:22;39.65;;;22.75;;
36351;SDS011;22382;44.768;17.206;2022-12-07T07:42:50;35.95;;;21.65;;
36351;SDS011;22382;44.768;17.206;2022-12-07T07:45:19;36.45;;;20.42;;
36351;SDS011;22382;44.768;17.206;2022-12-07T07:47:47;32.65;;;19.33;;
36351;SDS011;22382;44.768;17.206;2022-12-07T07:50:15;27.73;;;17.55;;
36351;SDS011;22382;44.768;17.206;2022-12-07T07:52:42;26.83;;;16.77;;
36351;SDS011;22382;44.768;17.206;2022-12-07T07:55:10;26.27;;;15.55;;
36351;SDS011;22382;44.768;17.206;2022-12-07T07:57:37;36.13;;;20.83;;
36351;SDS011;22382;44.768;17.206;2022-12-07T08:00:09;29.65;;;19.17;;
36351;SDS011;22382;44.768;17.206;2022-12-07T08:02:39;26.77;;;16.55;;
36351;SDS011;22382;44.768;17.206;2022-12-07T08:05:07;23.60;;;15.18;;
36351;SDS011;22382;44.768;17.206;2022-12-07T08:07:34;26.67;;;16.77;;
36351;SDS011;22382;44.768;17.206;2022-12-07T08:10:01;25.27;;;15.55;;
36351;SDS011;22382;44.768;17.206;2022-12-07T08:12:29;23.38;;;14.85;;
36351;SDS011;22382;44.768;17.206;2022-12-07T08:14:56;25.08;;;15.40;;
36351;SDS011;22382;44.768;17.206;2022-12-07T08:17:23;27.70;;;14.35;;
36351;SDS011;22382;44.768;17.206;2022-12-07T08:19:50;24.70;;;15.02;;
36351;SDS011;22382;44.768;17.206;2022-12-07T08:22:17;29.88;;;14.43;;
36351;SDS011;22382;44.768;17.206;2022-12-07T08:24:45;24.65;;;14.82;;
36351;SDS011;22382;44.768;17.206;2022-12-07T08:27:12;25.73;;;15.80;;
36351;SDS011;22382;44.768;17.206;2022-12-07T08:29:39;27.50;;;16.23;;
36351;SDS011;22382;44.768;17.206;2022-12-07T08:32:06;29.05;;;15.73;;
36351;SDS011;22382;44.768;17.206;2022-12-07T08:34:35;23.35;;;14.85;;
36351;SDS011;22382;44.768;17.206;2022-12-07T08:37:03;23.77;;;14.60;;
36351;SDS011;22382;44.768;17.206;2022-12-07T08:39:30;23.25;;;14.82;;
36351;SDS011;22382;44.768;17.206;2022-12-07T08:41:58;28.30;;;16.80;;
36351;SDS011;22382;44.768;17.206;2022-12-07T08:44:25;26.27;;;16.75;;
36351;SDS011;22382;44.768;17.206;2022-12-07T08:46:54;31.23;;;17.80;;
36351;SDS011;22382;44.768;17.206;2022-12-07T08:49:30;29.80;;;16.45;;
36351;SDS011;22382;44.768;17.206;2022-12-07T08:52:10;24.92;;;16.13;;
36351;SDS011;22382;44.768;17.206;2022-12-07T08:54:38;31.98;;;18.17;;
36351;SDS011;22382;44.768;17.206;2022-12-07T08:57:06;30.52;;;18.40;;
36351;SDS011;22382;44.768;17.206;2022-12-07T08:59:35;29.75;;;18.30;;
36351;SDS011;22382;44.768;17.206;2022-12-07T09:02:04;30.55;;;17.73;;
36351;SDS011;22382;44.768;17.206;2022-12-07T09:04:32;31.08;;;17.55;;
36351;SDS011;22382;44.768;17.206;2022-12-07T09:06:59;31.83;;;19.52;;
36351;SDS011;22382;44.768;17.206;2022-12-07T09:09:26;31.83;;;19.17;;
36351;SDS011;22382;44.768;17.206;2022-12-07T09:11:53;26.45;;;15.85;;
36351;SDS011;22382;44.768;17.206;2022-12-07T09:14:20;21.77;;;14.55;;
36351;SDS011;22382;44.768;17.206;2022-12-07T09:16:48;23.38;;;15.18;;
36351;SDS011;22382;44.768;17.206;2022-12-07T09:19:15;26.00;;;16.33;;
36351;SDS011;22382;44.768;17.206;2022-12-07T09:21:43;27.25;;;15.80;;
36351;SDS011;22382;44.768;17.206;2022-12-07T09:24:11;25.75;;;15.43;;
36351;SDS011;22382;44.768;17.206;2022-12-07T09:26:39;26.08;;;17.40;;
36351;SDS011;22382;44.768;17.206;2022-12-07T09:29:06;31.77;;;17.25;;
36351;SDS011;22382;44.768;17.206;2022-12-07T09:31:35;60.20;;;34.80;;
36351;SDS011;22382;44.768;17.206;2022-12-07T09:34:03;27.15;;;16.95;;
36351;SDS011;22382;44.768;17.206;2022-12-07T09:36:32;26.58;;;15.63;;
36351;SDS011;22382;44.768;17.206;2022-12-07T09:38:59;21.38;;;14.10;;
36351;SDS011;22382;44.768;17.206;2022-12-07T09:41:27;23.30;;;14.90;;
36351;SDS011;22382;44.768;17.206;2022-12-07T09:44:04;24.48;;;14.15;;
36351;SDS011;22382;44.768;17.206;2022-12-07T09:46:36;21.02;;;13.52;;
36351;SDS011;22382;44.768;17.206;2022-12-07T09:49:06;23.95;;;14.77;;
36351;SDS011;22382;44.768;17.206;2022-12-07T09:51:42;23.58;;;14.68;;
36351;SDS011;22382;44.768;17.206;2022-12-07T09:54:13;25.27;;;15.25;;
36351;SDS011;22382;44.768;17.206;2022-12-07T09:56:42;21.42;;;13.27;;
36351;SDS011;22382;44.768;17.206;2022-12-07T09:59:12;29.98;;;17.42;;
36351;SDS011;22382;44.768;17.206;2022-12-07T10:04:18;33.58;;;19.90;;
36351;SDS011;22382;44.768;17.206;2022-12-07T10:06:50;40.00;;;22.45;;
36351;SDS011;22382;44.768;17.206;2022-12-07T10:09:19;37.97;;;21.00;;
36351;SDS011;22382;44.768;17.206;2022-12-07T10:12:06;38.08;;;20.58;;
36351;SDS011;22382;44.768;17.206;2022-12-07T10:14:39;38.63;;;21.88;;
36351;SDS011;22382;44.768;17.206;2022-12-07T10:17:37;41.08;;;23.02;;
36351;SDS011;22382;44.768;17.206;2022-12-07T10:23:03;43.53;;;22.52;;
36351;SDS011;22382;44.768;17.206;2022-12-07T10:25:35;45.78;;;23.98;;
36351;SDS011;22382;44.768;17.206;2022-12-07T10:33:36;45.47;;;21.20;;
36351;SDS011;22382;44.768;17.206;2022-12-07T10:36:27;42.40;;;22.70;;
36351;SDS011;22382;44.768;17.206;2022-12-07T10:39:03;40.85;;;21.02;;
36351;SDS011;22382;44.768;17.206;2022-12-07T10:41:30;38.10;;;19.58;;
36351;SDS011;22382;44.768;17.206;2022-12-07T10:43:57;39.95;;;21.30;;
36351;SDS011;22382;44.768;17.206;2022-12-07T10:54:54;40.70;;;23.20;;
36351;SDS011;22382;44.768;17.206;2022-12-07T10:57:46;39.65;;;22.55;;
36351;SDS011;22382;44.768;17.206;2022-12-07T11:00:30;39.25;;;22.73;;
36351;SDS011;22382;44.768;17.206;2022-12-07T11:03:12;35.83;;;21.58;;
36351;SDS011;22382;44.768;17.206;2022-12-07T11:11:06;39.63;;;22.70;;
36351;SDS011;22382;44.768;17.206;2022-12-07T11:19:49;34.05;;;20.10;;
36351;SDS011;22382;44.768;17.206;2022-12-07T11:22:59;31.52;;;19.50;;
36351;SDS011;22382;44.768;17.206;2022-12-07T11:33:57;23.33;;;14.43;;
36351;SDS011;22382;44.768;17.206;2022-12-07T11:44:14;19.60;;;13.63;;
36351;SDS011;22382;44.768;17.206;2022-12-07T11:47:12;17.88;;;12.75;;
36351;SDS011;22382;44.768;17.206;2022-12-07T11:49:47;23.10;;;13.65;;
36351;SDS011;22382;44.768;17.206;2022-12-07T11:55:27;23.27;;;14.57;;
36351;SDS011;22382;44.768;17.206;2022-12-07T11:58:13;24.58;;;15.15;;
36351;SDS011;22382;44.768;17.206;2022-12-07T12:00:51;20.27;;;14.07;;
36351;SDS011;22382;44.768;17.206;2022-12-07T12:03:40;24.27;;;15.85;;
36351;SDS011;22382;44.768;17.206;2022-12-07T12:06:27;21.13;;;14.40;;
36351;SDS011;22382;44.768;17.206;2022-12-07T12:08:55;21.42;;;14.13;;
36351;SDS011;22382;44.768;17.206;2022-12-07T12:20:29;27.33;;;18.80;;
36351;SDS011;22382;44.768;17.206;2022-12-07T12:23:04;26.17;;;16.25;;
36351;SDS011;22382;44.768;17.206;2022-12-07T12:25:51;26.10;;;16.50;;
36351;SDS011;22382;44.768;17.206;2022-12-07T12:31:37;31.05;;;19.45;;
36351;SDS011;22382;44.768;17.206;2022-12-07T12:37:12;30.85;;;19.52;;
36351;SDS011;22382;44.768;17.206;2022-12-07T12:47:56;33.95;;;21.27;;
36351;SDS011;22382;44.768;17.206;2022-12-07T12:50:31;34.90;;;19.98;;
36351;SDS011;22382;44.768;17.206;2022-12-07T12:55:50;37.35;;;23.90;;
36351;SDS011;22382;44.768;17.206;2022-12-07T12:58:35;40.10;;;24.98;;
36351;SDS011;22382;44.768;17.206;2022-12-07T13:04:02;36.35;;;21.55;;
36351;SDS011;22382;44.768;17.206;2022-12-07T13:06:40;33.55;;;19.60;;
36351;SDS011;22382;44.768;17.206;2022-12-07T13:09:17;29.42;;;18.48;;
36351;SDS011;22382;44.768;17.206;2022-12-07T13:11:57;28.42;;;16.67;;
36351;SDS011;22382;44.768;17.206;2022-12-07T13:14:38;22.83;;;14.63;;
36351;SDS011;22382;44.768;17.206;2022-12-07T13:20:02;24.17;;;15.10;;
36351;SDS011;22382;44.768;17.206;2022-12-07T13:25:17;27.15;;;15.68;;
36351;SDS011;22382;44.768;17.206;2022-12-07T13:30:49;25.73;;;16.38;;
36351;SDS011;22382;44.768;17.206;2022-12-07T13:33:36;24.80;;;16.08;;
36351;SDS011;22382;44.768;17.206;2022-12-07T13:36:03;23.20;;;15.23;;
36351;SDS011;22382;44.768;17.206;2022-12-07T13:38:32;23.65;;;15.27;;
36351;SDS011;22382;44.768;17.206;2022-12-07T13:43:44;21.52;;;13.65;;
36351;SDS011;22382;44.768;17.206;2022-12-07T13:46:11;26.00;;;15.52;;
36351;SDS011;22382;44.768;17.206;2022-12-07T13:48:47;24.00;;;13.93;;
36351;SDS011;22382;44.768;17.206;2022-12-07T13:51:25;25.42;;;14.55;;
36351;SDS011;22382;44.768;17.206;2022-12-07T13:53:54;25.30;;;15.13;;
36351;SDS011;22382;44.768;17.206;2022-12-07T13:56:27;22.00;;;14.23;;
36351;SDS011;22382;44.768;17.206;2022-12-07T13:59:02;24.38;;;14.63;;
36351;SDS011;22382;44.768;17.206;2022-12-07T14:01:31;28.23;;;16.60;;
36351;SDS011;22382;44.768;17.206;2022-12-07T14:06:49;25.85;;;15.57;;
36351;SDS011;22382;44.768;17.206;2022-12-07T14:09:18;24.17;;;15.27;;
36351;SDS011;22382;44.768;17.206;2022-12-07T14:11:49;24.70;;;15.88;;
36351;SDS011;22382;44.768;17.206;2022-12-07T14:14:28;27.73;;;16.35;;
36351;SDS011;22382;44.768;17.206;2022-12-07T14:17:18;23.27;;;14.10;;
36351;SDS011;22382;44.768;17.206;2022-12-07T14:22:20;22.75;;;14.30;;
36351;SDS011;22382;44.768;17.206;2022-12-07T14:27:32;27.58;;;16.92;;
36351;SDS011;22382;44.768;17.206;2022-12-07T14:30:01;25.63;;;14.90;;
36351;SDS011;22382;44.768;17.206;2022-12-07T14:32:29;24.65;;;15.43;;
36351;SDS011;22382;44.768;17.206;2022-12-07T14:34:58;22.33;;;13.82;;
36351;SDS011;22382;44.768;17.206;2022-12-07T14:37:28;20.40;;;13.02;;
36351;SDS011;22382;44.768;17.206;2022-12-07T14:39:56;19.83;;;12.88;;
36351;SDS011;22382;44.768;17.206;2022-12-07T14:42:24;20.88;;;14.13;;
36351;SDS011;22382;44.768;17.206;2022-12-07T14:44:54;21.48;;;13.48;;
36351;SDS011;22382;44.768;17.206;2022-12-07T14:47:22;23.73;;;14.52;;
36351;SDS011;22382;44.768;17.206;2022-12-07T14:50:11;20.92;;;12.93;;
36351;SDS011;22382;44.768;17.206;2022-12-07T14:52:43;22.77;;;14.13;;
36351;SDS011;22382;44.768;17.206;2022-12-07T14:55:34;22.92;;;13.68;;
36351;SDS011;22382;44.768;17.206;2022-12-07T14:58:01;19.48;;;12.85;;
36351;SDS011;22382;44.768;17.206;2022-12-07T15:00:28;24.17;;;13.52;;
36351;SDS011;22382;44.768;17.206;2022-12-07T15:02:55;24.38;;;15.02;;
36351;SDS011;22382;44.768;17.206;2022-12-07T15:05:23;24.05;;;14.30;;
36351;SDS011;22382;44.768;17.206;2022-12-07T15:07:50;23.90;;;14.18;;
36351;SDS011;22382;44.768;17.206;2022-12-07T15:10:21;27.42;;;16.27;;
36351;SDS011;22382;44.768;17.206;2022-12-07T15:12:58;25.15;;;15.07;;
36351;SDS011;22382;44.768;17.206;2022-12-07T15:15:47;23.10;;;15.10;;
36351;SDS011;22382;44.768;17.206;2022-12-07T15:18:15;27.17;;;15.85;;
36351;SDS011;22382;44.768;17.206;2022-12-07T15:20:42;31.08;;;18.98;;
36351;SDS011;22382;44.768;17.206;2022-12-07T15:23:09;31.00;;;17.40;;
36351;SDS011;22382;44.768;17.206;2022-12-07T15:25:41;25.00;;;14.75;;
36351;SDS011;22382;44.768;17.206;2022-12-07T15:28:12;23.77;;;14.85;;
36351;SDS011;22382;44.768;17.206;2022-12-07T15:30:40;23.77;;;14.57;;
36351;SDS011;22382;44.768;17.206;2022-12-07T15:33:09;24.05;;;14.55;;
36351;SDS011;22382;44.768;17.206;2022-12-07T15:35:41;23.70;;;14.85;;
36351;SDS011;22382;44.768;17.206;2022-12-07T15:38:09;24.08;;;15.23;;
36351;SDS011;22382;44.768;17.206;2022-12-07T15:40:37;22.30;;;14.63;;
36351;SDS011;22382;44.768;17.206;2022-12-07T15:43:04;22.05;;;14.52;;
36351;SDS011;22382;44.768;17.206;2022-12-07T15:45:51;21.58;;;14.52;;
36351;SDS011;22382;44.768;17.206;2022-12-07T15:48:18;25.65;;;15.18;;
36351;SDS011;22382;44.768;17.206;2022-12-07T15:51:01;22.52;;;14.25;;
36351;SDS011;22382;44.768;17.206;2022-12-07T15:53:32;23.00;;;14.25;;
36351;SDS011;22382;44.768;17.206;2022-12-07T15:55:59;21.60;;;13.30;;
36351;SDS011;22382;44.768;17.206;2022-12-07T15:58:27;18.48;;;11.75;;
36351;SDS011;22382;44.768;17.206;2022-12-07T16:00:54;19.95;;;11.80;;
36351;SDS011;22382;44.768;17.206;2022-12-07T16:03:21;20.98;;;11.93;;
36351;SDS011;22382;44.768;17.206;2022-12-07T16:05:48;19.52;;;11.45;;
36351;SDS011;22382;44.768;17.206;2022-12-07T16:08:16;29.98;;;17.52;;
36351;SDS011;22382;44.768;17.206;2022-12-07T16:10:43;30.15;;;17.25;;
36351;SDS011;22382;44.768;17.206;2022-12-07T16:13:10;31.70;;;19.60;;
36351;SDS011;22382;44.768;17.206;2022-12-07T16:15:41;31.45;;;18.95;;
36351;SDS011;22382;44.768;17.206;2022-12-07T16:18:09;34.90;;;20.65;;
36351;SDS011;22382;44.768;17.206;2022-12-07T16:20:36;38.38;;;22.95;;
36351;SDS011;22382;44.768;17.206;2022-12-07T16:23:03;40.63;;;23.70;;
36351;SDS011;22382;44.768;17.206;2022-12-07T16:25:30;42.28;;;26.45;;
36351;SDS011;22382;44.768;17.206;2022-12-07T16:27:57;40.10;;;25.60;;
36351;SDS011;22382;44.768;17.206;2022-12-07T16:30:24;39.67;;;25.17;;
36351;SDS011;22382;44.768;17.206;2022-12-07T16:32:51;38.45;;;24.40;;
36351;SDS011;22382;44.768;17.206;2022-12-07T16:35:24;42.15;;;24.45;;
36351;SDS011;22382;44.768;17.206;2022-12-07T16:37:51;40.40;;;23.17;;
36351;SDS011;22382;44.768;17.206;2022-12-07T16:40:18;38.25;;;22.95;;
36351;SDS011;22382;44.768;17.206;2022-12-07T16:42:45;38.67;;;23.35;;
36351;SDS011;22382;44.768;17.206;2022-12-07T16:45:12;37.53;;;22.52;;
36351;SDS011;22382;44.768;17.206;2022-12-07T16:47:46;42.38;;;24.80;;
36351;SDS011;22382;44.768;17.206;2022-12-07T16:50:13;45.00;;;27.52;;
36351;SDS011;22382;44.768;17.206;2022-12-07T16:52:40;49.33;;;28.98;;